Time;durP1;ratioP1;P1;durP2;ratioP2;P2;SDS_P1;SDS_P2;PMS_P1;PMS_P2;Temp;Humidity;BMP_temperature;BMP_pressure;BME280_temperature;BME280_humidity;BME280_pressure;Samples;Min_cycle;Max_cycle;Signal;HPM_P1;HPM_P2
2020/12/03 00:01:56;;;;;;;49.05;24.77;;;2.00;99.90;;;;;;5088917;28;20557;-80
2020/12/03 00:04:22;;;;;;;54.50;26.42;;;1.90;99.90;;;;;;5092701;28;20387;-80
2020/12/03 00:06:52;;;;;;;51.97;23.00;;;2.10;99.90;;;;;;5075831;28;20021;-80
2020/12/03 00:09:20;;;;;;;49.60;23.98;;;2.10;99.90;;;;;;5092687;28;20035;-79
2020/12/03 00:11:58;;;;;;;51.20;26.05;;;2.30;99.90;;;;;;5075760;28;20025;-80
2020/12/03 00:14:24;;;;;;;50.03;23.63;;;2.40;99.90;;;;;;5075557;28;20518;-80
2020/12/03 00:16:50;;;;;;;46.30;23.55;;;2.40;99.90;;;;;;5092602;28;20074;-80
2020/12/03 00:19:19;;;;;;;45.03;22.98;;;2.30;99.90;;;;;;5092502;28;20047;-80
2020/12/03 00:21:53;;;;;;;42.95;22.05;;;2.40;99.90;;;;;;5075555;28;20107;-80
2020/12/03 00:24:30;;;;;;;49.20;24.30;;;2.60;99.90;;;;;;5059091;28;20032;-80
2020/12/03 00:26:56;;;;;;;47.78;23.48;;;2.40;99.90;;;;;;5092389;28;20044;-81
2020/12/03 00:29:23;;;;;;;50.40;25.30;;;2.20;99.90;;;;;;5075402;28;20025;-80
2020/12/03 00:31:50;;;;;;;51.10;25.25;;;2.30;99.90;;;;;;5092230;28;20025;-80
2020/12/03 00:34:17;;;;;;;45.95;23.15;;;2.30;99.90;;;;;;5092113;28;20044;-80
2020/12/03 00:36:43;;;;;;;52.03;25.92;;;2.20;99.90;;;;;;5092162;28;20024;-80
2020/12/03 00:39:13;;;;;;;50.75;24.13;;;2.10;99.90;;;;;;5076444;28;20029;-80
2020/12/03 00:41:39;;;;;;;53.58;25.38;;;2.00;99.90;;;;;;5076616;28;20032;-80
2020/12/03 00:44:05;;;;;;;47.78;23.48;;;2.10;99.90;;;;;;5075104;28;20143;-80
2020/12/03 00:46:34;;;;;;;47.63;24.83;;;2.10;99.90;;;;;;5091902;28;20024;-80
2020/12/03 00:49:01;;;;;;;53.58;27.05;;;2.20;99.90;;;;;;5074979;28;20032;-80
2020/12/03 00:51:26;;;;;;;49.63;25.00;;;2.00;99.90;;;;;;5074955;28;20029;-80
2020/12/03 00:53:53;;;;;;;47.78;25.80;;;2.10;99.90;;;;;;5074881;28;20025;-80
2020/12/03 00:56:19;;;;;;;55.15;24.85;;;2.10;99.90;;;;;;5091827;28;20055;-80
2020/12/03 00:58:48;;;;;;;54.50;25.98;;;2.20;99.90;;;;;;5074871;28;20419;-80
2020/12/03 01:01:20;;;;;;;53.75;25.27;;;2.20;99.90;;;;;;5074858;28;20025;-81
2020/12/03 01:03:47;;;;;;;50.60;25.35;;;2.30;99.90;;;;;;5074988;28;20059;-80
2020/12/03 01:06:13;;;;;;;51.15;25.15;;;2.30;99.90;;;;;;5091630;28;20028;-79
2020/12/03 01:08:39;;;;;;;50.75;26.00;;;2.20;99.90;;;;;;5075952;28;20480;-80
2020/12/03 01:11:05;;;;;;;50.40;25.13;;;2.20;99.90;;;;;;5076199;28;20032;-80
2020/12/03 01:13:31;;;;;;;47.60;24.02;;;2.30;99.90;;;;;;5090485;28;20135;-80
2020/12/03 01:15:57;;;;;;;48.92;24.13;;;2.30;99.90;;;;;;5075408;28;20020;-80
2020/12/03 01:18:24;;;;;;;49.20;25.05;;;2.30;99.90;;;;;;5091391;28;20020;-80
2020/12/03 01:20:50;;;;;;;46.97;24.60;;;2.30;99.90;;;;;;5074459;28;20028;-80
2020/12/03 01:23:15;;;;;;;47.88;24.63;;;2.30;99.90;;;;;;5074482;28;20388;-80
2020/12/03 01:25:41;;;;;;;51.88;24.88;;;2.20;99.90;;;;;;5074418;28;20025;-80
2020/12/03 01:28:07;;;;;;;56.40;26.65;;;2.20;99.90;;;;;;5074378;28;20039;-80
2020/12/03 01:30:32;;;;;;;51.13;25.42;;;2.10;99.90;;;;;;5074291;28;20119;-80
2020/12/03 01:32:58;;;;;;;51.67;26.70;;;2.10;99.90;;;;;;5074241;28;20383;-80
2020/12/03 01:35:24;;;;;;;49.47;24.73;;;2.10;99.90;;;;;;5074109;28;20111;-80
2020/12/03 01:37:50;;;;;;;48.20;24.52;;;2.10;99.90;;;;;;5074272;28;20543;-80
2020/12/03 01:40:25;;;;;;;44.03;22.85;;;2.10;99.90;;;;;;5090984;28;20104;-80
2020/12/03 01:42:52;;;;;;;51.90;25.25;;;2.20;99.90;;;;;;5090967;28;20111;-80
2020/12/03 01:45:54;;;;;;;49.50;25.85;;;2.30;99.90;;;;;;5090572;28;20029;-80
2020/12/03 01:48:39;;;;;;;49.35;24.75;;;2.20;99.90;;;;;;5090833;28;20036;-80
2020/12/03 01:51:25;;;;;;;52.65;27.15;;;2.20;99.90;;;;;;5073923;28;20032;-80
2020/12/03 01:53:57;;;;;;;45.97;23.65;;;2.00;99.90;;;;;;5074966;28;20085;-80
2020/12/03 01:56:50;;;;;;;48.25;23.90;;;2.00;99.90;;;;;;5090724;28;20024;-80
2020/12/03 01:59:19;;;;;;;47.75;23.67;;;2.20;99.90;;;;;;5075273;28;20391;-80
2020/12/03 02:01:45;;;;;;;53.95;26.83;;;2.20;99.90;;;;;;5090558;28;20480;-80
2020/12/03 02:04:11;;;;;;;48.78;24.80;;;2.20;99.90;;;;;;5073537;28;20035;-80
2020/12/03 02:06:39;;;;;;;51.92;24.80;;;2.20;99.90;;;;;;5090517;28;20036;-80
2020/12/03 02:09:08;;;;;;;49.33;25.17;;;2.20;99.90;;;;;;5057150;28;20424;-80
2020/12/03 02:11:35;;;;;;;52.90;25.98;;;2.10;99.90;;;;;;5074674;28;20036;-80
2020/12/03 02:14:07;;;;;;;46.58;23.92;;;2.00;99.90;;;;;;5074406;28;20048;-79
2020/12/03 02:16:36;;;;;;;44.20;23.40;;;2.00;99.90;;;;;;5090296;28;20507;-80
2020/12/03 02:19:03;;;;;;;43.33;22.52;;;2.10;99.90;;;;;;5090153;28;20073;-80
2020/12/03 02:21:28;;;;;;;50.25;25.60;;;2.10;99.90;;;;;;5090147;28;20074;-81
2020/12/03 02:23:54;;;;;;;47.00;23.35;;;2.10;99.90;;;;;;5073206;28;20476;-80
2020/12/03 02:26:20;;;;;;;45.50;22.42;;;2.20;99.90;;;;;;5072895;28;20111;-80
2020/12/03 02:28:47;;;;;;;45.78;24.77;;;2.40;99.90;;;;;;5072919;28;20044;-80
2020/12/03 02:31:13;;;;;;;41.90;21.73;;;2.50;99.90;;;;;;5089949;28;20028;-80
2020/12/03 02:33:39;;;;;;;41.97;22.27;;;2.40;99.90;;;;;;5072970;28;20020;-80
2020/12/03 02:36:05;;;;;;;39.33;21.50;;;2.40;99.90;;;;;;5072905;28;20028;-80
2020/12/03 02:38:32;;;;;;;41.95;22.95;;;2.30;99.90;;;;;;5072953;28;20028;-80
2020/12/03 02:40:59;;;;;;;43.33;22.13;;;2.30;99.90;;;;;;5072901;28;20538;-80
2020/12/03 02:43:25;;;;;;;41.67;24.08;;;2.40;99.90;;;;;;5089775;28;20029;-80
2020/12/03 02:45:51;;;;;;;44.40;23.45;;;2.40;99.90;;;;;;5089663;28;20087;-80
2020/12/03 02:48:17;;;;;;;40.30;22.50;;;2.40;99.90;;;;;;5089715;28;20028;-80
2020/12/03 02:50:43;;;;;;;41.85;23.45;;;2.30;99.90;;;;;;5056122;28;20476;-80
2020/12/03 02:53:10;;;;;;;43.35;21.85;;;2.30;99.90;;;;;;5072680;28;20104;-80
2020/12/03 02:55:36;;;;;;;37.65;21.33;;;2.20;99.90;;;;;;5072588;28;20020;-80
2020/12/03 02:58:02;;;;;;;42.72;22.33;;;2.40;99.90;;;;;;5073865;28;20384;-80
2020/12/03 03:00:28;;;;;;;40.53;21.00;;;2.40;99.90;;;;;;5089373;28;20028;-80
2020/12/03 03:02:54;;;;;;;36.90;20.58;;;2.40;99.90;;;;;;5072420;28;20031;-81
2020/12/03 03:05:19;;;;;;;39.72;22.67;;;2.30;99.90;;;;;;5072741;28;20527;-80
2020/12/03 03:07:45;;;;;;;47.20;23.13;;;2.20;99.90;;;;;;5073772;28;20099;-80
2020/12/03 03:10:14;;;;;;;39.10;20.38;;;2.10;99.90;;;;;;5073765;28;20497;-80
2020/12/03 03:12:40;;;;;;;34.30;19.65;;;2.20;99.90;;;;;;5089256;28;20021;-80
2020/12/03 03:15:07;;;;;;;32.28;18.13;;;2.20;99.90;;;;;;5088779;28;20055;-80
2020/12/03 03:17:32;;;;;;;33.40;18.23;;;2.50;99.90;;;;;;5073655;28;20059;-80
2020/12/03 03:19:58;;;;;;;34.78;19.23;;;2.70;99.90;;;;;;5072361;28;20024;-81
2020/12/03 03:22:24;;;;;;;33.90;18.85;;;2.60;99.90;;;;;;5073593;28;20430;-81
2020/12/03 03:24:50;;;;;;;38.15;21.58;;;2.50;99.90;;;;;;5072249;28;20472;-80
2020/12/03 03:27:16;;;;;;;36.50;19.55;;;2.20;99.90;;;;;;5072090;28;20035;-80
2020/12/03 03:29:41;;;;;;;36.20;20.05;;;2.20;99.90;;;;;;5074031;28;20021;-80
2020/12/03 03:32:07;;;;;;;41.85;23.08;;;2.30;99.90;;;;;;5072237;28;20033;-80
2020/12/03 03:34:33;;;;;;;37.13;20.27;;;2.20;99.90;;;;;;5073380;28;20029;-81
2020/12/03 03:36:59;;;;;;;36.63;19.67;;;2.10;99.90;;;;;;5054906;28;20112;-80
2020/12/03 03:39:25;;;;;;;32.63;18.30;;;2.40;99.90;;;;;;5072135;28;20051;-80
2020/12/03 03:41:53;;;;;;;36.05;20.38;;;2.40;99.90;;;;;;5071578;28;20051;-80
2020/12/03 03:44:20;;;;;;;33.58;18.33;;;2.50;99.90;;;;;;5072079;28;20040;-80
2020/12/03 03:46:47;;;;;;;37.47;19.58;;;2.60;99.90;;;;;;5089415;28;20055;-80
2020/12/03 03:49:13;;;;;;;32.42;18.88;;;2.50;99.90;;;;;;5055184;28;20040;-80
2020/12/03 03:51:40;;;;;;;33.25;18.50;;;2.30;99.90;;;;;;5088841;28;20024;-80
2020/12/03 03:54:06;;;;;;;32.42;18.00;;;2.40;99.90;;;;;;5088734;28;20052;-80
2020/12/03 03:56:32;;;;;;;36.03;19.08;;;2.50;99.90;;;;;;5072250;28;20401;-79
2020/12/03 03:58:58;;;;;;;34.70;18.92;;;2.40;99.90;;;;;;5071828;28;20037;-80
2020/12/03 04:01:24;;;;;;;30.73;17.75;;;2.20;99.90;;;;;;5055235;28;20055;-80
2020/12/03 04:03:51;;;;;;;34.83;19.70;;;2.30;99.90;;;;;;5071885;28;20029;-80
2020/12/03 04:06:19;;;;;;;34.05;18.17;;;2.40;99.90;;;;;;5073355;28;20044;-80
2020/12/03 04:08:48;;;;;;;31.80;19.35;;;2.30;99.90;;;;;;5071883;28;20422;-80
2020/12/03 04:11:16;;;;;;;33.55;17.33;;;2.50;99.90;;;;;;5071786;28;20020;-80
2020/12/03 04:13:43;;;;;;;27.80;17.27;;;2.40;99.90;;;;;;5071569;28;20040;-80
2020/12/03 04:16:09;;;;;;;30.38;16.95;;;2.60;99.90;;;;;;5071803;28;20025;-80
2020/12/03 04:18:35;;;;;;;28.83;16.13;;;2.60;99.90;;;;;;5071796;28;20066;-80
2020/12/03 04:21:05;;;;;;;29.27;16.55;;;2.50;99.90;;;;;;5088796;28;20020;-80
2020/12/03 04:23:31;;;;;;;26.95;16.20;;;2.40;99.90;;;;;;5073303;28;20028;-80
2020/12/03 04:25:56;;;;;;;30.45;17.20;;;2.40;99.90;;;;;;5072984;28;20017;-81
2020/12/03 04:28:22;;;;;;;31.23;17.88;;;2.30;99.90;;;;;;5072924;28;20104;-80
2020/12/03 04:30:49;;;;;;;30.63;17.38;;;2.30;99.90;;;;;;5073439;28;20028;-80
2020/12/03 04:33:15;;;;;;;30.40;16.85;;;1.90;99.90;;;;;;5071928;28;20024;-80
2020/12/03 04:35:41;;;;;;;30.63;17.10;;;2.10;99.90;;;;;;5072782;28;20388;-80
2020/12/03 04:38:09;;;;;;;28.92;17.75;;;2.30;99.90;;;;;;5071569;28;20023;-80
2020/12/03 04:40:39;;;;;;;29.88;17.35;;;2.40;99.90;;;;;;5071519;28;20116;-80
2020/12/03 04:43:27;;;;;;;26.70;16.55;;;2.50;99.90;;;;;;5088403;28;20021;-80
2020/12/03 04:46:21;;;;;;;27.60;16.33;;;2.40;99.90;;;;;;5088368;28;20452;-80
2020/12/03 04:49:23;;;;;;;29.52;16.08;;;2.50;99.90;;;;;;5089769;28;20021;-81
2020/12/03 04:52:23;;;;;;;24.98;14.55;;;2.60;99.90;;;;;;5075082;28;20426;-80
2020/12/03 04:55:17;;;;;;;29.20;17.52;;;2.80;99.90;;;;;;5074893;28;20111;-80
2020/12/03 04:58:00;;;;;;;26.15;15.45;;;2.60;99.90;;;;;;5091829;28;20024;-80
2020/12/03 05:00:37;;;;;;;29.63;17.33;;;2.50;99.90;;;;;;5076174;28;20016;-80
2020/12/03 05:03:39;;;;;;;27.50;15.45;;;2.50;99.90;;;;;;5074854;28;20032;-80
2020/12/03 05:06:20;;;;;;;27.65;15.50;;;2.60;99.90;;;;;;5091687;28;20114;-80
2020/12/03 05:09:00;;;;;;;25.27;14.88;;;2.70;99.90;;;;;;5074819;28;20471;-80
2020/12/03 05:11:30;;;;;;;29.35;15.77;;;2.70;99.90;;;;;;5076869;28;20348;-80
2020/12/03 05:14:38;;;;;;;23.60;14.95;;;2.70;99.90;;;;;;5091240;28;20048;-80
2020/12/03 05:17:42;;;;;;;31.98;16.13;;;2.80;99.90;;;;;;5074594;28;20016;-81
2020/12/03 05:20:11;;;;;;;27.40;16.42;;;2.80;99.90;;;;;;5044107;28;20091;-80
2020/12/03 05:22:46;;;;;;;23.23;14.68;;;2.60;99.90;;;;;;5074440;28;20024;-80
2020/12/03 05:25:18;;;;;;;26.98;16.52;;;2.60;99.90;;;;;;5091051;28;20480;-80
2020/12/03 05:27:45;;;;;;;24.30;14.85;;;2.40;99.90;;;;;;5075669;28;20031;-80
2020/12/03 05:30:11;;;;;;;27.25;16.30;;;2.50;99.90;;;;;;5074331;28;20031;-81
2020/12/03 05:32:37;;;;;;;28.02;16.75;;;2.40;99.90;;;;;;5074296;28;20032;-80
2020/12/03 05:35:05;;;;;;;25.30;14.10;;;2.50;99.90;;;;;;5074156;28;20028;-80
2020/12/03 05:37:33;;;;;;;28.30;16.20;;;2.40;99.90;;;;;;5074467;28;20035;-80
2020/12/03 05:39:59;;;;;;;25.40;16.42;;;2.50;99.90;;;;;;5074123;28;20037;-80
2020/12/03 05:42:33;;;;;;;24.60;15.57;;;2.50;99.90;;;;;;5057432;28;20430;-80
2020/12/03 05:45:07;;;;;;;24.17;15.65;;;2.50;99.90;;;;;;5090894;28;20035;-80
2020/12/03 05:47:36;;;;;;;26.40;16.10;;;2.70;99.90;;;;;;5090849;28;20024;-79
2020/12/03 05:50:04;;;;;;;28.10;15.07;;;2.50;99.90;;;;;;5090677;28;20043;-80
2020/12/03 05:52:31;;;;;;;28.02;15.15;;;2.50;99.90;;;;;;5073834;28;20024;-80
2020/12/03 05:54:57;;;;;;;25.52;15.32;;;2.40;99.90;;;;;;5075179;28;20463;-79
2020/12/03 05:57:27;;;;;;;26.77;15.07;;;2.50;99.90;;;;;;5073698;28;20111;-80
2020/12/03 05:59:52;;;;;;;25.15;15.50;;;2.50;99.90;;;;;;5073330;28;20048;-80
2020/12/03 06:02:34;;;;;;;22.88;14.25;;;2.60;99.90;;;;;;5073578;28;20059;-79
2020/12/03 06:05:37;;;;;;;23.88;14.38;;;2.60;99.90;;;;;;5090517;28;20026;-80
2020/12/03 06:08:26;;;;;;;23.38;14.88;;;2.60;99.90;;;;;;5050623;28;20033;-80
2020/12/03 06:11:11;;;;;;;21.95;14.68;;;2.60;99.90;;;;;;5090433;28;20082;-80
2020/12/03 06:13:54;;;;;;;25.27;15.02;;;2.30;99.90;;;;;;5073223;28;20044;-80
2020/12/03 06:16:27;;;;;;;26.92;15.15;;;2.30;99.90;;;;;;5073375;28;20470;-79
2020/12/03 06:19:19;;;;;;;23.95;14.65;;;2.20;99.90;;;;;;5074794;28;20029;-80
2020/12/03 06:21:57;;;;;;;22.73;14.45;;;2.30;99.90;;;;;;5090190;28;20024;-80
2020/12/03 06:24:34;;;;;;;26.83;14.75;;;2.30;99.90;;;;;;5073278;28;20024;-80
2020/12/03 06:27:21;;;;;;;21.88;13.18;;;2.40;99.90;;;;;;5073200;28;20545;-79
2020/12/03 06:30:18;;;;;;;23.55;14.45;;;2.50;99.90;;;;;;5073161;28;20024;-80
2020/12/03 06:33:09;;;;;;;21.83;13.32;;;2.50;99.90;;;;;;5090046;28;20365;-79
2020/12/03 06:35:53;;;;;;;22.38;13.88;;;2.50;99.90;;;;;;5072945;28;20120;-80
2020/12/03 06:38:19;;;;;;;;;;;2.60;99.90;;;;;;5074985;28;20016;-80
2020/12/03 06:41:26;;;;;;;22.83;14.27;;;2.50;99.90;;;;;;5089812;28;19911;-80
2020/12/03 06:44:02;;;;;;;23.85;13.98;;;2.50;99.90;;;;;;5050786;28;20127;-79
2020/12/03 06:47:05;;;;;;;22.75;14.15;;;2.70;99.90;;;;;;5089718;28;20032;-80
2020/12/03 06:49:43;;;;;;;24.77;14.45;;;2.80;99.90;;;;;;5089639;28;20541;-80
2020/12/03 06:52:27;;;;;;;24.23;14.70;;;2.70;99.90;;;;;;5072613;28;20032;-80
2020/12/03 06:55:17;;;;;;;26.17;15.60;;;2.60;99.90;;;;;;5072566;28;20510;-80
2020/12/03 06:58:01;;;;;;;29.35;17.27;;;2.40;99.90;;;;;;5089508;28;20046;-80
2020/12/03 07:00:30;;;;;;;;;;;2.30;99.90;;;;;;5073005;28;20071;-80
2020/12/03 07:02:58;;;;;;;27.75;15.85;;;2.30;99.90;;;;;;5089481;28;20346;-80
2020/12/03 07:05:42;;;;;;;19.35;12.32;;;2.30;99.90;;;;;;5072521;28;20025;-80
2020/12/03 07:08:38;;;;;;;19.73;11.07;;;2.40;99.90;;;;;;5073773;28;20029;-80
2020/12/03 07:11:28;;;;;;;21.40;12.32;;;2.60;99.90;;;;;;5089346;28;20094;-80
2020/12/03 07:14:13;;;;;;;18.20;11.63;;;2.70;99.90;;;;;;5088743;28;20076;-80
2020/12/03 07:17:15;;;;;;;16.67;10.15;;;2.90;99.90;;;;;;5073714;28;20421;-80
2020/12/03 07:19:59;;;;;;;16.48;11.05;;;2.90;99.90;;;;;;5072367;28;20111;-80
2020/12/03 07:22:39;;;;;;;19.35;11.50;;;2.90;99.90;;;;;;5072324;28;20044;-80
2020/12/03 07:25:07;;;;;;;17.25;9.70;;;2.80;99.90;;;;;;5073837;28;20103;-80
2020/12/03 07:28:00;;;;;;;16.65;10.75;;;2.80;99.90;;;;;;5072281;28;20120;-80
2020/12/03 07:30:42;;;;;;;16.50;10.10;;;2.80;99.90;;;;;;5089184;28;20055;-80
2020/12/03 07:33:12;;;;;;;19.35;10.93;;;2.90;99.90;;;;;;5089053;28;20038;-80
2020/12/03 07:36:14;;;;;;;22.85;11.60;;;2.80;99.90;;;;;;5072155;28;20368;-80
2020/12/03 07:39:08;;;;;;;20.15;11.07;;;2.70;99.90;;;;;;5073473;28;20070;-80
2020/12/03 07:41:47;;;;;;;14.13;9.30;;;2.70;99.90;;;;;;5070121;28;20033;-80
2020/12/03 07:44:37;;;;;;;15.25;9.30;;;2.80;99.90;;;;;;5088971;28;20024;-79
2020/12/03 07:47:20;;;;;;;13.63;8.55;;;2.90;99.90;;;;;;5072083;28;20040;-80
2020/12/03 07:49:54;;;;;;;13.13;9.03;;;2.90;99.90;;;;;;5088936;28;20365;-80
2020/12/03 07:52:25;;;;;;;63.90;38.00;;;3.00;99.90;;;;;;5073909;28;20093;-80
2020/12/03 07:54:51;;;;;;;11.40;7.97;;;2.90;99.90;;;;;;5088844;28;20797;-80
2020/12/03 07:57:47;;;;;;;18.20;9.82;;;2.90;99.90;;;;;;5072007;28;20045;-80
2020/12/03 08:00:24;;;;;;;16.48;9.50;;;2.80;99.90;;;;;;5072024;28;20111;-80
2020/12/03 08:02:58;;;;;;;12.55;8.15;;;2.90;99.90;;;;;;5072156;28;20024;-81
2020/12/03 08:05:38;;;;;;;15.00;10.07;;;2.90;99.90;;;;;;5073713;28;20024;-81
2020/12/03 08:08:04;;;;;;;14.75;9.13;;;2.90;99.90;;;;;;5072826;28;20051;-80
2020/12/03 08:10:40;;;;;;;13.85;8.30;;;3.00;99.90;;;;;;5088696;28;20029;-81
2020/12/03 08:13:36;;;;;;;13.38;7.97;;;3.00;99.90;;;;;;5071916;28;20529;-80
2020/12/03 08:16:06;;;;;;;11.63;8.27;;;2.70;99.90;;;;;;5088627;28;20043;-81
2020/12/03 08:18:39;;;;;;;13.35;9.18;;;2.70;99.90;;;;;;5088705;28;20111;-81
2020/12/03 08:21:05;;;;;;;11.88;8.32;;;2.60;99.90;;;;;;5088895;28;20039;-81
2020/12/03 08:23:31;;;;;;;12.27;8.45;;;2.70;99.90;;;;;;5072865;28;20028;-80
2020/12/03 08:25:57;;;;;;;13.95;9.07;;;2.70;99.90;;;;;;5075651;28;20138;-81
2020/12/03 08:28:26;;;;;;;13.20;9.65;;;2.80;99.90;;;;;;5075547;28;20484;-80
2020/12/03 08:30:52;;;;;;;18.85;10.20;;;2.70;99.90;;;;;;5075802;28;20062;-81
2020/12/03 08:33:30;;;;;;;16.13;9.43;;;2.60;99.90;;;;;;5075537;28;20036;-81
2020/12/03 08:36:06;;;;;;;14.57;9.82;;;2.70;99.90;;;;;;5092329;28;20020;-82
2020/12/03 08:38:35;;;;;;;16.73;10.35;;;2.70;99.90;;;;;;5075400;28;20120;-81
2020/12/03 08:41:05;;;;;;;18.35;11.00;;;2.60;99.90;;;;;;5076527;28;20052;-81
2020/12/03 08:43:33;;;;;;;21.92;11.80;;;2.50;99.90;;;;;;5092210;28;20112;-80
2020/12/03 08:46:11;;;;;;;23.75;13.55;;;2.40;99.90;;;;;;5092045;28;20093;-80
2020/12/03 08:48:39;;;;;;;18.73;12.27;;;2.30;99.90;;;;;;5092082;28;20021;-81
2020/12/03 08:51:09;;;;;;;22.73;13.13;;;2.40;99.90;;;;;;5076369;28;20380;-81
2020/12/03 08:53:36;;;;;;;20.88;12.45;;;2.50;99.90;;;;;;5076319;28;20047;-81
2020/12/03 08:56:21;;;;;;;22.33;14.05;;;2.70;99.90;;;;;;5076281;28;20096;-81
2020/12/03 08:59:17;;;;;;;19.67;11.30;;;2.90;99.90;;;;;;5076256;28;20024;-81
2020/12/03 09:01:51;;;;;;;19.02;12.95;;;2.90;99.90;;;;;;5076259;28;20379;-82
2020/12/03 09:04:24;;;;;;;20.00;12.00;;;2.90;99.90;;;;;;5091765;28;20086;-81
2020/12/03 09:06:54;;;;;;;16.77;10.93;;;2.90;99.90;;;;;;5091743;28;20028;-80
2020/12/03 09:09:22;;;;;;;16.38;12.07;;;2.80;99.90;;;;;;5074775;28;20024;-80
2020/12/03 09:11:49;;;;;;;18.10;10.88;;;3.10;99.90;;;;;;5074721;28;20029;-81
2020/12/03 09:14:15;;;;;;;20.45;11.60;;;3.10;99.90;;;;;;5075629;28;20047;-81
2020/12/03 09:16:44;;;;;;;15.38;9.38;;;3.20;99.90;;;;;;5075972;28;20024;-81
2020/12/03 09:19:20;;;;;;;15.60;10.35;;;3.20;99.90;;;;;;5091419;28;20028;-81
2020/12/03 09:21:50;;;;;;;20.02;12.38;;;3.30;99.90;;;;;;5091476;28;20106;-81
2020/12/03 09:24:21;;;;;;;17.17;10.85;;;3.30;99.90;;;;;;5091359;28;20032;-81
2020/12/03 09:26:48;;;;;;;21.13;11.52;;;2.70;99.90;;;;;;5074513;28;20115;-81
2020/12/03 09:29:14;;;;;;;18.50;11.05;;;2.80;99.90;;;;;;5091208;28;20025;-81
2020/12/03 09:31:40;;;;;;;18.70;11.32;;;2.60;99.90;;;;;;5074336;28;20035;-81
2020/12/03 09:34:08;;;;;;;19.02;12.00;;;2.80;99.90;;;;;;5075532;28;20365;-82
2020/12/03 09:36:36;;;;;;;17.42;11.35;;;2.90;99.90;;;;;;5090720;28;20027;-80
2020/12/03 09:39:02;;;;;;;20.10;11.50;;;2.70;99.90;;;;;;5074192;28;20078;-80
2020/12/03 09:41:29;;;;;;;20.83;12.55;;;2.60;99.90;;;;;;5075399;28;20435;-81
2020/12/03 09:43:58;;;;;;;19.42;11.05;;;2.30;99.90;;;;;;5090992;28;20384;-80
2020/12/03 09:46:28;;;;;;;20.42;12.38;;;2.30;99.90;;;;;;5075273;28;20070;-81
2020/12/03 09:48:54;;;;;;;15.13;9.95;;;2.60;99.90;;;;;;5075252;28;20468;-80
2020/12/03 09:51:22;;;;;;;14.60;9.65;;;3.00;99.90;;;;;;5090810;28;20021;-80
2020/12/03 09:53:49;;;;;;;17.85;11.85;;;3.20;99.90;;;;;;5075120;28;20016;-80
2020/12/03 09:56:16;;;;;;;16.27;11.00;;;3.20;99.90;;;;;;5090771;28;20020;-80
2020/12/03 09:58:42;;;;;;;28.20;17.20;;;3.30;99.90;;;;;;5073782;28;20025;-80
2020/12/03 10:01:09;;;;;;;41.05;21.58;;;3.20;99.90;;;;;;5075006;28;20020;-81
2020/12/03 10:03:58;;;;;;;24.52;11.75;;;3.00;99.90;;;;;;5090583;28;20026;-82
2020/12/03 10:06:31;;;;;;;15.95;10.68;;;2.80;99.90;;;;;;5073663;28;20033;-81
2020/12/03 10:09:07;;;;;;;20.17;12.43;;;2.70;99.90;;;;;;5090544;28;20059;-80
2020/12/03 10:11:55;;;;;;;16.33;10.07;;;2.40;99.90;;;;;;5074826;28;20039;-80
2020/12/03 10:14:59;;;;;;;18.05;10.70;;;2.60;99.90;;;;;;5090238;28;20400;-81
2020/12/03 10:17:33;;;;;;;15.90;10.65;;;2.70;99.90;;;;;;5075032;28;20048;-82
2020/12/03 10:20:03;;;;;;;16.00;10.95;;;2.80;99.90;;;;;;5090226;28;20027;-79
2020/12/03 10:23:04;;;;;;;18.30;10.05;;;2.90;99.90;;;;;;5074410;28;20025;-80
2020/12/03 10:25:32;;;;;;;18.65;10.02;;;2.80;99.90;;;;;;5084659;28;20067;-80
2020/12/03 10:28:24;;;;;;;16.77;10.07;;;3.00;99.90;;;;;;5073530;28;20043;-80
2020/12/03 10:30:54;;;;;;;19.77;10.57;;;2.90;99.90;;;;;;5090190;28;20024;-81
2020/12/03 10:33:23;;;;;;;14.80;10.13;;;3.00;99.90;;;;;;5090285;28;20032;-81
2020/12/03 10:35:50;;;;;;;14.48;9.05;;;2.90;99.90;;;;;;5089874;28;20028;-81
2020/12/03 10:38:23;;;;;;;18.17;10.15;;;2.70;99.90;;;;;;5074537;28;20349;-81
2020/12/03 10:40:54;;;;;;;15.88;9.60;;;2.60;99.90;;;;;;5090003;28;20384;-81
2020/12/03 10:43:27;;;;;;;17.13;10.48;;;2.70;99.90;;;;;;5089842;28;20487;-80
2020/12/03 10:45:58;;;;;;;17.30;10.70;;;2.60;99.90;;;;;;5072705;28;20090;-81
2020/12/03 10:48:32;;;;;;;15.05;9.75;;;2.80;99.90;;;;;;5089835;28;20476;-81
2020/12/03 10:51:02;;;;;;;15.05;9.38;;;3.00;99.90;;;;;;5072801;28;20475;-81
2020/12/03 10:53:29;;;;;;;15.35;8.80;;;2.90;99.90;;;;;;5089782;28;20527;-81
2020/12/03 10:56:00;;;;;;;11.23;7.35;;;3.10;99.90;;;;;;5089615;28;20422;-81
2020/12/03 10:58:39;;;;;;;15.68;9.27;;;2.90;99.90;;;;;;5074022;28;20073;-81
2020/12/03 11:01:07;;;;;;;13.45;8.73;;;2.80;99.90;;;;;;5074372;28;20094;-81
2020/12/03 11:03:36;;;;;;;15.88;8.23;;;2.90;99.90;;;;;;5089815;28;20024;-80
2020/12/03 11:06:02;;;;;;;11.40;7.63;;;2.90;99.90;;;;;;5089451;28;20020;-81
2020/12/03 11:08:37;;;;;;;16.75;9.18;;;3.10;99.90;;;;;;5089369;28;20032;-80
2020/12/03 11:11:04;;;;;;;12.02;7.82;;;3.00;99.90;;;;;;5073795;28;20070;-80
2020/12/03 11:13:30;;;;;;;12.98;8.40;;;3.10;99.90;;;;;;5072269;28;20373;-81
2020/12/03 11:15:58;;;;;;;15.55;7.95;;;3.20;99.90;;;;;;5089318;28;20032;-80
2020/12/03 11:18:26;;;;;;;15.20;8.77;;;3.30;99.90;;;;;;5073587;28;20050;-81
2020/12/03 11:20:59;;;;;;;14.93;7.90;;;3.30;99.90;;;;;;5089227;28;20513;-80
2020/12/03 11:23:29;;;;;;;13.05;7.88;;;3.30;99.90;;;;;;5073692;28;20411;-80
2020/12/03 11:26:06;;;;;;;12.55;7.60;;;3.00;99.90;;;;;;5073580;28;20020;-82
2020/12/03 11:28:35;;;;;;;14.07;7.93;;;3.00;99.90;;;;;;5089153;28;20020;-80
2020/12/03 11:31:06;;;;;;;16.08;8.20;;;3.00;99.90;;;;;;5089083;28;20024;-80
2020/12/03 11:33:37;;;;;;;17.55;10.35;;;3.10;99.90;;;;;;5089144;28;20025;-80
2020/12/03 11:36:15;;;;;;;13.15;8.45;;;3.30;99.90;;;;;;5089008;28;20086;-80
2020/12/03 11:38:52;;;;;;;15.63;9.02;;;2.90;99.90;;;;;;5089044;28;20032;-80
2020/12/03 11:41:24;;;;;;;13.27;7.60;;;3.00;99.90;;;;;;5073470;28;20024;-81
2020/12/03 11:49:00;;;;;;;24.17;9.23;;;3.30;99.90;;;;;;5073700;28;20025;-81
2020/12/03 11:51:29;;;;;;;20.60;13.02;;;3.40;99.90;;;;;;5072053;28;20027;-81
2020/12/03 11:54:03;;;;;;;14.82;8.27;;;3.50;99.90;;;;;;5088820;28;20017;-81
2020/12/03 11:56:30;;;;;;;18.40;9.13;;;3.50;99.90;;;;;;5073370;28;20028;-80
2020/12/03 11:59:19;;;;;;;14.02;8.48;;;3.40;99.90;;;;;;5075127;28;20021;-81
2020/12/03 12:02:05;;;;;;;18.10;10.23;;;3.60;99.90;;;;;;5092991;28;20024;-80
2020/12/03 12:04:49;;;;;;;13.13;8.45;;;3.50;99.90;;;;;;5092942;28;20048;-80
2020/12/03 12:12:35;;;;;;;35.60;13.90;;;3.50;99.90;;;;;;5077311;28;20040;-81
2020/12/03 12:15:03;;;;;;;20.55;12.15;;;3.70;99.90;;;;;;5076721;28;20044;-80
2020/12/03 12:17:31;;;;;;;18.42;9.60;;;3.70;99.90;;;;;;5092603;28;20039;-81
2020/12/03 12:19:59;;;;;;;20.60;10.00;;;3.80;99.90;;;;;;5077199;28;20013;-81
2020/12/03 12:22:25;;;;;;;12.75;8.20;;;3.80;99.90;;;;;;5075646;28;20380;-81
2020/12/03 12:24:51;;;;;;;38.08;16.83;;;3.60;99.90;;;;;;5075578;28;20024;-81
2020/12/03 12:27:16;;;;;;;19.95;11.95;;;3.60;99.90;;;;;;5075555;28;20021;-80
2020/12/03 12:29:42;;;;;;;15.98;10.00;;;3.40;99.90;;;;;;5075457;28;20039;-80
2020/12/03 12:32:09;;;;;;;23.75;12.85;;;3.50;99.90;;;;;;5075411;28;20396;-81
2020/12/03 12:34:35;;;;;;;17.60;10.65;;;3.40;99.90;;;;;;5076907;28;20473;-80
2020/12/03 12:37:00;;;;;;;16.77;10.38;;;3.40;99.90;;;;;;5092325;28;20024;-81
2020/12/03 12:39:27;;;;;;;16.92;11.55;;;3.40;99.90;;;;;;5075475;28;20475;-81
2020/12/03 12:42:04;;;;;;;15.13;10.15;;;3.40;99.90;;;;;;5075256;28;20025;-80
2020/12/03 12:44:30;;;;;;;22.40;11.30;;;3.30;99.90;;;;;;5092131;28;20028;-80
2020/12/03 12:46:57;;;;;;;17.92;11.00;;;3.30;99.90;;;;;;5076526;28;20060;-80
2020/12/03 12:49:24;;;;;;;20.95;13.35;;;3.50;99.90;;;;;;5092120;28;20033;-81
2020/12/03 12:51:50;;;;;;;17.92;10.50;;;3.30;99.90;;;;;;5091979;28;20063;-80
2020/12/03 12:54:16;;;;;;;17.95;10.82;;;3.30;99.90;;;;;;5091930;28;20062;-80
2020/12/03 12:56:45;;;;;;;17.92;10.75;;;3.50;99.90;;;;;;5076321;28;20025;-80
2020/12/03 12:59:11;;;;;;;17.85;10.38;;;3.50;99.90;;;;;;5076257;28;20012;-81
2020/12/03 13:01:37;;;;;;;16.38;10.50;;;3.70;99.90;;;;;;5091865;28;20024;-81
2020/12/03 13:04:03;;;;;;;15.52;9.90;;;3.90;99.90;;;;;;5074872;28;20428;-81
2020/12/03 13:06:28;;;;;;;17.90;10.80;;;3.90;99.90;;;;;;5074818;28;20028;-81
2020/12/03 13:08:54;;;;;;;18.08;11.60;;;4.00;99.90;;;;;;5076063;28;20368;-81
2020/12/03 13:11:20;;;;;;;15.45;9.82;;;4.00;99.90;;;;;;5076017;28;20074;-81
2020/12/03 13:13:45;;;;;;;15.70;10.52;;;3.90;99.90;;;;;;5075694;28;20571;-80
2020/12/03 13:16:11;;;;;;;15.73;10.07;;;3.70;99.90;;;;;;5074618;28;20036;-80